LIMJ/GOA METAR and TAF weather

Enter ICAO airport designator
Station Type Date Time Source
LIMJ METAR 2019/04/20 17:50 UTC NOAA

LIMJ 201750Z VRB02KT 9999 SCT070 20/02 Q1022


Station Type Date Time Source
LIMJ Decoded METAR 2019/04/20 17:50 UTC NOAA

Genova / Sestri, Italy (LIMJ) 44-25N 008-51E 3M
Apr 20, 2019 - 01:50 PM EDT / 2019.04.20 1750 UTC
Wind: Variable at 2 MPH (2 KT):0
Visibility: greater than 7 mile(s):0
Sky conditions: partly cloudy
Temperature: 68 F (20 C)
Dew Point: 35 F (2 C)
Relative Humidity: 30%
Pressure (altimeter): 30.18 in. Hg (1022 hPa)
ob: LIMJ 201750Z VRB02KT 9999 SCT070 20/02 Q1022
cycle: 18

Station Type Date Time Source
LIMJ TAF 2019/04/20 18:21 UTC NOAA

TAF LIMJ 201700Z 2018/2118 01008KT CAVOK

Example: see airport list